Time,TemperatureF,DewpointF,PressureIn,WindDirection,WindDirectionDegrees,WindSpeedMPH,WindSpeedGustMPH,Humidity,HourlyPrecipIn,Conditions,Clouds,dailyrainin,SolarRadiationWatts/m^2,SoftwareType,DateUTC
2013-08-02 00:02:00,88.0,49.0,-100.00,ESE,121,6.0,9.0,26,0.00,,,0.00,1.000000,,2013-08-02 07:02:00,
2013-08-02 00:12:00,88.0,49.0,-100.00,ESE,121,6.0,9.0,26,0.00,,,0.00,1.000000,,2013-08-02 07:12:00,
2013-08-02 00:44:00,86.0,56.0,-100.00,SE,139,8.0,12.0,36,0.00,,,0.00,1.000000,,2013-08-02 07:44:00,
2013-08-02 00:53:00,86.0,56.0,-100.00,SE,139,8.0,12.0,36,0.00,,,0.00,1.000000,,2013-08-02 07:53:00,
2013-08-02 01:02:00,86.0,56.0,-100.00,SE,139,8.0,12.0,36,0.00,,,0.00,1.000000,,2013-08-02 08:02:00,
2013-08-02 01:12:00,86.0,56.0,-100.00,SE,139,8.0,12.0,36,0.00,,,0.00,1.000000,,2013-08-02 08:12:00,
2013-08-02 01:43:00,88.0,54.0,-100.00,SE,143,13.0,19.0,32,0.00,,,0.00,1.000000,,2013-08-02 08:43:00,
2013-08-02 01:54:00,88.0,54.0,-100.00,SE,143,13.0,19.0,32,0.00,,,0.00,1.000000,,2013-08-02 08:54:00,
2013-08-02 02:02:00,88.0,54.0,-100.00,SE,143,13.0,19.0,32,0.00,,,0.00,1.000000,,2013-08-02 09:02:00,
2013-08-02 02:12:00,88.0,54.0,-100.00,SE,143,13.0,19.0,32,0.00,,,0.00,1.000000,,2013-08-02 09:12:00,
2013-08-02 02:44:00,84.0,58.0,-100.00,WSW,246,3.0,19.0,42,0.00,,,0.00,1.000000,,2013-08-02 09:44:00,
2013-08-02 02:53:00,84.0,58.0,-100.00,WSW,246,3.0,19.0,42,0.00,,,0.00,1.000000,,2013-08-02 09:53:00,
2013-08-02 03:02:00,84.0,58.0,-100.00,WSW,246,3.0,19.0,42,0.00,,,0.00,1.000000,,2013-08-02 10:02:00,
2013-08-02 03:12:00,84.0,58.0,-100.00,WSW,246,3.0,19.0,42,0.00,,,0.00,1.000000,,2013-08-02 10:12:00,
2013-08-02 03:43:00,82.0,60.0,-100.00,NW,309,3.0,7.0,48,0.00,,,0.00,1.000000,,2013-08-02 10:43:00,
2013-08-02 03:52:00,82.0,60.0,-100.00,NW,309,3.0,7.0,48,0.00,,,0.00,1.000000,,2013-08-02 10:52:00,
2013-08-02 04:02:00,82.0,60.0,-100.00,NW,309,3.0,7.0,48,0.00,,,0.00,1.000000,,2013-08-02 11:02:00,
2013-08-02 04:12:00,82.0,60.0,-100.00,NW,309,3.0,7.0,48,0.00,,,0.00,1.000000,,2013-08-02 11:12:00,
2013-08-02 04:43:00,82.0,61.0,-100.00,SE,146,2.0,6.0,50,0.00,,,-99.99,1.000000,,2013-08-02 11:43:00,
2013-08-02 04:52:00,82.0,61.0,-100.00,SE,146,2.0,6.0,50,0.00,,,-99.99,1.000000,,2013-08-02 11:52:00,
2013-08-02 05:02:00,82.0,61.0,-100.00,SE,146,2.0,6.0,50,0.00,,,-99.99,1.000000,,2013-08-02 12:02:00,
2013-08-02 05:12:00,82.0,61.0,-100.00,SE,146,2.0,6.0,50,0.00,,,-99.99,1.000000,,2013-08-02 12:12:00,
2013-08-02 05:43:00,81.0,62.0,-100.00,SE,141,7.0,9.0,53,0.00,,,0.00,1.000000,,2013-08-02 12:43:00,
2013-08-02 05:52:00,81.0,62.0,-100.00,SE,141,7.0,9.0,53,0.00,,,0.00,1.000000,,2013-08-02 12:52:00,
2013-08-02 06:02:00,81.0,62.0,-100.00,SE,141,7.0,9.0,53,0.00,,,0.00,1.000000,,2013-08-02 13:02:00,
2013-08-02 06:12:00,81.0,62.0,-100.00,SE,141,7.0,9.0,53,0.00,,,0.00,1.000000,,2013-08-02 13:12:00,
2013-08-02 06:43:00,81.0,62.0,-100.00,SE,135,8.0,9.0,53,0.00,,,0.00,6.000000,,2013-08-02 13:43:00,
2013-08-02 06:52:00,81.0,62.0,-100.00,SE,135,8.0,9.0,53,0.00,,,0.00,6.000000,,2013-08-02 13:52:00,
2013-08-02 07:02:00,81.0,62.0,-100.00,SE,135,8.0,9.0,53,0.00,,,0.00,6.000000,,2013-08-02 14:02:00,
2013-08-02 07:12:00,81.0,62.0,-100.00,SE,135,8.0,9.0,53,0.00,,,0.00,6.000000,,2013-08-02 14:12:00,
2013-08-02 07:43:00,82.0,63.0,-100.00,SW,216,3.0,11.0,53,0.00,,,0.00,70.000000,,2013-08-02 14:43:00,
2013-08-02 07:53:00,82.0,63.0,-100.00,SW,216,3.0,11.0,53,0.00,,,0.00,70.000000,,2013-08-02 14:53:00,
2013-08-02 08:03:00,82.0,63.0,-100.00,SW,216,3.0,11.0,53,0.00,,,0.00,70.000000,,2013-08-02 15:03:00,
2013-08-02 08:12:00,82.0,63.0,-100.00,SW,216,3.0,11.0,53,0.00,,,0.00,70.000000,,2013-08-02 15:12:00,
2013-08-02 08:43:00,85.0,65.0,-100.00,South,171,4.0,6.0,52,0.00,,,0.00,198.000000,,2013-08-02 15:43:00,
2013-08-02 08:52:00,85.0,65.0,-100.00,South,171,4.0,6.0,52,0.00,,,0.00,198.000000,,2013-08-02 15:52:00,
2013-08-02 09:02:00,85.0,65.0,-100.00,South,171,4.0,6.0,52,0.00,,,0.00,198.000000,,2013-08-02 16:02:00,
2013-08-02 09:12:00,85.0,65.0,-100.00,South,171,4.0,6.0,52,0.00,,,0.00,198.000000,,2013-08-02 16:12:00,
2013-08-02 09:43:00,92.0,64.0,-100.00,SSE,154,9.0,12.0,40,0.00,,,-99.99,551.000000,,2013-08-02 16:43:00,
2013-08-02 09:53:00,92.0,64.0,-100.00,SSE,154,9.0,12.0,40,0.00,,,-99.99,551.000000,,2013-08-02 16:53:00,
2013-08-02 10:02:00,92.0,64.0,-100.00,SSE,154,9.0,12.0,40,0.00,,,-99.99,551.000000,,2013-08-02 17:02:00,
2013-08-02 10:12:00,92.0,64.0,-100.00,SSE,154,9.0,12.0,40,0.00,,,-99.99,551.000000,,2013-08-02 17:12:00,
2013-08-02 10:43:00,96.0,59.0,-100.00,SSE,165,10.0,15.0,29,0.00,,,0.00,780.000000,,2013-08-02 17:43:00,
2013-08-02 10:52:00,96.0,59.0,-100.00,SSE,165,10.0,15.0,29,0.00,,,0.00,780.000000,,2013-08-02 17:52:00,
2013-08-02 11:02:00,96.0,59.0,-100.00,SSE,165,10.0,15.0,29,0.00,,,0.00,780.000000,,2013-08-02 18:02:00,
2013-08-02 11:12:00,96.0,59.0,-100.00,SSE,165,10.0,15.0,29,0.00,,,0.00,780.000000,,2013-08-02 18:12:00,
2013-08-02 11:43:00,98.0,55.0,-100.00,South,173,10.0,16.0,24,0.00,,,0.00,815.000000,,2013-08-02 18:43:00,
2013-08-02 11:52:00,98.0,55.0,-100.00,South,173,10.0,16.0,24,0.00,,,0.00,815.000000,,2013-08-02 18:52:00,
2013-08-02 12:02:00,98.0,55.0,-100.00,South,173,10.0,16.0,24,0.00,,,0.00,815.000000,,2013-08-02 19:02:00,
2013-08-02 12:12:00,98.0,55.0,-100.00,South,173,10.0,16.0,24,0.00,,,0.00,815.000000,,2013-08-02 19:12:00,
2013-08-02 12:43:00,100.0,52.0,-100.00,South,172,11.0,18.0,20,0.00,,,0.00,617.000000,,2013-08-02 19:43:00,
2013-08-02 12:52:00,100.0,52.0,-100.00,South,172,11.0,18.0,20,0.00,,,0.00,617.000000,,2013-08-02 19:52:00,
2013-08-02 13:02:00,100.0,52.0,-100.00,South,172,11.0,18.0,20,0.00,,,0.00,617.000000,,2013-08-02 20:02:00,
2013-08-02 13:12:00,100.0,52.0,-100.00,South,172,11.0,18.0,20,0.00,,,0.00,617.000000,,2013-08-02 20:12:00,
2013-08-02 14:43:00,103.0,45.0,-100.00,SSE,164,11.0,19.0,14,0.00,,,0.00,991.000000,,2013-08-02 21:43:00,
2013-08-02 14:53:00,103.0,45.0,-100.00,SSE,164,11.0,19.0,14,0.00,,,0.00,991.000000,,2013-08-02 21:53:00,
2013-08-02 15:02:00,103.0,45.0,-100.00,SSE,164,11.0,19.0,14,0.00,,,0.00,991.000000,,2013-08-02 22:02:00,
2013-08-02 15:11:00,103.0,45.0,-100.00,SSE,164,11.0,19.0,14,0.00,,,0.00,991.000000,,2013-08-02 22:11:00,
2013-08-02 15:43:00,105.0,51.0,-100.00,South,170,8.0,17.0,17,0.00,,,0.00,891.000000,,2013-08-02 22:43:00,
2013-08-02 15:52:00,105.0,51.0,-100.00,South,170,8.0,17.0,17,0.00,,,0.00,891.000000,,2013-08-02 22:52:00,
2013-08-02 16:02:00,105.0,51.0,-100.00,South,170,8.0,17.0,17,0.00,,,0.00,891.000000,,2013-08-02 23:02:00,
2013-08-02 16:12:00,105.0,51.0,-100.00,South,170,8.0,17.0,17,0.00,,,0.00,891.000000,,2013-08-02 23:12:00,
2013-08-02 16:44:00,105.0,50.0,-100.00,SSE,167,10.0,16.0,16,0.00,,,0.00,735.000000,,2013-08-02 23:44:00,
2013-08-02 16:53:00,105.0,50.0,-100.00,SSE,167,10.0,16.0,16,0.00,,,0.00,735.000000,,2013-08-02 23:53:00,
2013-08-02 17:02:00,105.0,50.0,-100.00,SSE,167,10.0,16.0,16,0.00,,,0.00,735.000000,,2013-08-03 00:02:00,
2013-08-02 17:12:00,105.0,50.0,-100.00,SSE,167,10.0,16.0,16,0.00,,,0.00,735.000000,,2013-08-03 00:12:00,
2013-08-02 17:52:00,104.0,43.0,-100.00,SSE,147,14.0,19.0,13,0.00,,,0.00,544.000000,,2013-08-03 00:52:00,
2013-08-02 18:12:00,104.0,43.0,-100.00,SSE,147,14.0,19.0,13,0.00,,,0.00,544.000000,,2013-08-03 01:12:00,
2013-08-02 18:43:00,103.0,43.0,-100.00,SSE,162,10.0,19.0,13,0.00,,,0.00,331.000000,,2013-08-03 01:43:00,
2013-08-02 18:53:00,103.0,43.0,-100.00,SSE,162,10.0,19.0,13,0.00,,,0.00,331.000000,,2013-08-03 01:53:00,
2013-08-02 19:02:00,103.0,43.0,-100.00,SSE,162,10.0,19.0,13,0.00,,,0.00,331.000000,,2013-08-03 02:02:00,
2013-08-02 19:12:00,103.0,43.0,-100.00,SSE,162,10.0,19.0,13,0.00,,,0.00,331.000000,,2013-08-03 02:12:00,
2013-08-02 19:43:00,98.0,50.0,-100.00,SSE,160,9.0,16.0,20,0.00,,,0.00,123.000000,,2013-08-03 02:43:00,
2013-08-02 19:52:00,98.0,50.0,-100.00,SSE,160,9.0,16.0,20,0.00,,,0.00,123.000000,,2013-08-03 02:52:00,
2013-08-02 20:02:00,98.0,50.0,-100.00,SSE,160,9.0,16.0,20,0.00,,,0.00,123.000000,,2013-08-03 03:02:00,
2013-08-02 20:11:00,98.0,50.0,-100.00,SSE,160,9.0,16.0,20,0.00,,,0.00,123.000000,,2013-08-03 03:11:00,
2013-08-02 20:43:00,92.0,45.0,-100.00,SE,133,9.0,12.0,20,0.00,,,0.00,6.000000,,2013-08-03 03:43:00,
2013-08-02 20:53:00,92.0,45.0,-100.00,SE,133,9.0,12.0,20,0.00,,,0.00,6.000000,,2013-08-03 03:53:00,
2013-08-02 21:02:00,92.0,45.0,-100.00,SE,133,9.0,12.0,20,0.00,,,0.00,6.000000,,2013-08-03 04:02:00,
2013-08-02 21:12:00,92.0,45.0,-100.00,SE,133,9.0,12.0,20,0.00,,,0.00,6.000000,,2013-08-03 04:12:00,
2013-08-02 21:43:00,89.0,47.0,-100.00,SE,138,9.0,13.0,24,0.00,,,0.00,1.000000,,2013-08-03 04:43:00,
2013-08-02 21:53:00,89.0,47.0,-100.00,SE,138,9.0,13.0,24,0.00,,,0.00,1.000000,,2013-08-03 04:53:00,
2013-08-02 22:02:00,89.0,47.0,-100.00,SE,138,9.0,13.0,24,0.00,,,0.00,1.000000,,2013-08-03 05:02:00,
2013-08-02 22:11:00,89.0,47.0,-100.00,SE,138,9.0,13.0,24,0.00,,,0.00,1.000000,,2013-08-03 05:11:00,
2013-08-02 22:42:00,88.0,52.0,-100.00,SE,140,12.0,16.0,29,0.00,,,-99.99,1.000000,,2013-08-03 05:42:00,
2013-08-02 22:52:00,88.0,52.0,-100.00,SE,140,12.0,16.0,29,0.00,,,-99.99,1.000000,,2013-08-03 05:52:00,
2013-08-02 23:02:00,88.0,52.0,-100.00,SE,140,12.0,16.0,29,0.00,,,-99.99,1.000000,,2013-08-03 06:02:00,
2013-08-02 23:12:00,88.0,52.0,-100.00,SE,140,12.0,16.0,29,0.00,,,-99.99,1.000000,,2013-08-03 06:12:00,
2013-08-02 23:42:00,85.0,52.0,-100.00,SE,141,11.0,18.0,32,0.00,,,0.00,1.000000,,2013-08-03 06:42:00,
2013-08-02 23:52:00,85.0,52.0,-100.00,SE,141,11.0,18.0,32,0.00,,,0.00,1.000000,,2013-08-03 06:52:00,